Station: CAPE BORDA AWS

  Atmospheric Gas Attenuation - ITU Rec 676-11   --------------- db/100km ---------------
Date Time Temp RH % AH g/m3 Dew Point Wind Direction Speed kph Gust kph Barometer mB Rainfall Since 9am 24GHz 47GHz 76GHz 122GHz 134GHz 241GHz
25 00:30 15 97 12.44 14.5 19 22 1012.9 0 27.8 32.1 55.4 146.2 150.2 519.8
25 00:20 14.9 98 12.49 14.6 19 22 1013.1 0 27.9 32.2 55.8 147.0 151.2 523.1
25 00:10 15 98 12.57 14.7 20 24 1013.2 0 28.0 32.3 56.0 147.8 152.2 526.6
25 00:00 15.1 97 12.51 14.6 20 24 1013.2 0 27.9 32.2 55.7 146.9 151.1 522.8
24 23:50 15.3 94 12.28 14.3 22 26 1013.3 0 27.4 31.7 54.5 143.8 147.3 509.7
24 23:40 15.5 89 11.76 13.7 20 22 1013.4 0 26.3 30.7 52.1 137.3 139.4 482.1
24 23:30 15.6 81 10.77 12.4 17 19 1013.4 0 24.1 28.9 47.8 125.7 125.2 432.6
24 23:20 15.5 79 10.44 11.9 13 15 1013.5 0 23.4 28.4 46.4 122.2 120.8 417.2
24 23:10 15.2 81 10.51 12 15 17 1013.6 0 23.6 28.6 46.9 123.4 122.3 422.2
24 23:00 14.1 82 9.95 11.1 15 17 1013.5 0 22.5 28.0 45.2 118.9 116.2 400.9
24 22:50 14 84 10.13 11.3 15 15 1013.7 0 22.9 28.4 46.0 121.1 118.9 410.3
24 22:40 13.9 86 10.31 11.6 15 17 1013.8 0 23.2 28.7 46.9 123.3 121.6 419.6
24 22:30 13.8 88 10.49 11.8 15 17 1013.8 0 23.6 29.1 47.7 125.5 124.3 429.0
24 22:20 13.8 89 10.6 12 15 15 1014.1 0 23.9 29.3 48.2 126.8 125.9 434.6
24 22:10 13.8 90 10.72 12.2 13 13 1014.2 0 24.1 29.5 48.7 128.2 127.6 440.5
24 22:00 13.9 91 10.91 12.5 17 20 1014.1 0 24.5 29.8 49.5 130.2 130.1 449.4
24 21:50 13.8 92 10.96 12.5 17 17 1014.3 0 24.7 29.9 49.8 131.0 131.0 452.6
24 21:40 13.9 92 11.03 12.6 17 17 1014.4 0 24.8 30.0 50.0 131.6 131.9 455.5
24 21:30 14.1 91 11.04 12.7 15 17 1014.3 0 24.8 30.0 49.9 131.4 131.7 454.8
24 21:20 14.2 91 11.11 12.8 15 17 1014.4 0 24.9 30.0 50.2 132.1 132.5 457.8
24 21:10 14.4 93 11.5 13.3 13 15 1014.4 0 25.8 30.7 51.7 136.3 137.8 476.2
24 21:00 14.5 93 11.57 13.4 13 15 1014.3 0 25.9 30.8 52.0 136.9 138.6 479.1
24 20:50 14.6 92 11.51 13.3 13 15 1014.5 0 25.8 30.6 51.7 136.1 137.6 475.5
24 20:40 15.1 88 11.35 13.1 15 15 1014.4 0 25.4 30.2 50.6 133.3 134.4 464.4
24 20:30 15.9 80 10.83 12.5 11 13 1014.3 0 24.2 29.0 47.9 126.0 125.7 434.1
24 20:19 16.7 78 11.08 12.8 7 9 1014.3 0 24.7 29.1 48.4 127.5 127.8 441.7
24 20:07 17.2 75 10.98 12.7 7 9 1014.3 0 24.5 28.8 47.7 125.6 125.6 434.1
24 19:54 17.7 71 10.71 12.4 9 9 1014.3 0 23.9 28.2 46.3 121.8 121.1 418.5
24 19:50 17.9 70 10.69 12.4 9 11 1014.4 0 23.8 28.1 46.1 121.3 120.6 416.5
24 19:40 18.2 68 10.57 12.2 9 11 1014.3 0 23.6 27.8 45.4 119.5 118.5 409.3
24 19:30 18.2 69 10.72 12.4 11 13 1014.2 0 23.9 28.1 46.0 121.1 120.5 416.3
24 19:20 18.1 71 10.97 12.8 9 11 1014.3 0 24.4 28.5 47.1 124.0 124.0 428.6
24 19:10 17.8 72 10.93 12.7 13 13 1014.2 0 24.3 28.5 47.1 124.1 123.9 428.3
24 19:00 17.9 71 10.84 12.6 13 15 1014.1 0 24.1 28.3 46.7 122.9 122.6 423.5
24 18:50 17.9 70 10.69 12.4 15 15 1014.2 0 23.8 28.1 46.1 121.3 120.5 416.5
24 18:40 18.1 65 10.04 11.4 15 17 1014.2 0 22.4 27.0 43.4 114.0 111.6 385.3
24 18:30 18.1 66 10.2 11.7 13 17 1014.2 0 22.8 27.2 44.0 115.7 113.7 392.6
24 18:20 18.7 58 9.29 10.3 13 15 1014.4 0 20.8 25.6 40.1 105.3 101.2 348.7
24 18:10 18.2 58 9.01 9.8 11 13 1014.4 0 20.2 25.3 39.3 103.1 98.2 338.5
24 18:00 17.9 64 9.77 11 13 17 1014.5 0 21.9 26.6 42.4 111.4 108.4 374.0
24 17:50 17.7 70 10.56 12.2 13 13 1014.7 0 23.6 28.0 45.7 120.2 119.2 411.6
24 17:40 17.3 75 11.05 12.8 17 19 1014.8 0 24.6 28.9 48.0 126.3 126.4 437.0
24 17:30 17.6 73 10.95 12.7 15 20 1014.9 0 24.4 28.7 47.4 124.7 124.6 430.6
24 17:20 17.3 78 11.49 13.4 15 17 1015 0 25.6 29.7 49.8 131.2 132.5 458.3
24 17:10 17.1 76 11.06 12.8 17 20 1015.2 0 24.7 29.0 48.2 126.7 127.0 438.8
24 17:00 16.6 74 10.45 12 17 20 1015.2 0 23.4 28.2 45.9 120.8 119.4 412.4
24 16:50 17.5 76 11.33 13.2 19 22 1015.3 0 25.2 29.3 49.0 129.1 130.0 449.5
24 16:40 16.8 78 11.15 12.9 17 20 1015.3 0 24.9 29.3 48.7 128.3 128.7 444.8
24 16:30 16.4 78 10.89 12.6 15 20 1015.3 0 24.3 29.0 47.9 126.0 125.8 434.5
24 16:20 16.9 78 11.22 13 17 20 1015.4 0 25.0 29.4 49.0 128.9 129.5 447.7
24 16:10 16.9 77 11.07 12.8 15 19 1015.4 0 24.7 29.1 48.3 127.2 127.4 440.4
24 16:00 17.4 78 11.56 13.5 19 22 1015.5 0 25.7 29.8 50.1 131.9 133.4 461.3
24 15:50 16.8 77 11.01 12.7 17 20 1015.7 0 24.6 29.0 48.1 126.7 126.8 438.2
24 15:40 17 77 11.14 12.9 20 24 1015.7 0 24.8 29.2 48.6 127.9 128.3 443.4
24 15:30 17.6 77 11.55 13.5 19 24 1015.7 0 25.7 29.7 49.9 131.5 132.9 459.7
24 15:20 17.3 78 11.49 13.4 20 24 1015.8 0 25.6 29.7 49.9 131.3 132.6 458.6
24 15:10 17.2 77 11.28 13.1 19 24 1016 0 25.1 29.4 49.1 129.1 129.9 449.1
24 15:00 17 75 10.85 12.5 17 24 1016.1 0 24.2 28.7 47.4 124.7 124.3 429.6
24 14:50 17.5 76 11.33 13.2 17 20 1016.3 0 25.2 29.4 49.1 129.2 130.1 449.9
24 14:40 17.6 76 11.4 13.3 15 19 1016.3 0 25.4 29.5 49.3 129.9 130.9 452.7
24 14:30 17.7 74 11.16 13 19 24 1016.3 0 24.8 29.0 48.3 127.0 127.4 440.5
24 14:20 17.2 75 10.98 12.7 15 19 1016.6 0 24.5 28.9 47.8 125.9 125.8 434.8
24 14:10 17.2 73 10.69 12.3 17 22 1016.8 0 23.9 28.4 46.6 122.7 121.9 421.1
24 14:00 16.9 77 11.07 12.8 19 26 1016.8 0 24.7 29.2 48.4 127.4 127.6 440.9
24 13:50 17.4 74 10.97 12.7 20 22 1017 0 24.4 28.8 47.7 125.5 125.4 433.4
24 13:40 17.3 75 11.05 12.8 17 19 1017.1 0 24.6 29.0 48.1 126.5 126.7 437.8
24 13:30 17.1 74 10.77 12.4 19 24 1017.1 0 24.0 28.6 47.0 123.7 123.2 425.5
24 13:20 16.9 75 10.79 12.4 19 20 1017.3 0 24.1 28.7 47.2 124.3 123.8 427.6
24 13:10 17 75 10.85 12.5 19 20 1017.4 0 24.2 28.8 47.4 124.8 124.5 430.0
24 13:00 17.3 74 10.9 12.6 17 22 1017.3 0 24.3 28.8 47.5 124.9 124.6 430.7
24 12:50 17 75 10.85 12.5 15 17 1017.6 0 24.2 28.8 47.5 124.8 124.5 430.1
24 12:40 16.7 75 10.66 12.3 19 20 1017.7 0 23.8 28.6 46.8 123.2 122.4 422.6
24 12:30 16.8 75 10.72 12.3 19 24 1017.8 0 23.9 28.6 47.0 123.7 123.0 425.0
24 12:20 17.1 75 10.92 12.6 20 24 1017.9 0 24.4 28.9 47.7 125.5 125.3 433.0
24 12:10 16.9 75 10.79 12.4 19 24 1018.1 0 24.1 28.7 47.3 124.4 123.9 427.9
24 12:00 16.6 75 10.59 12.2 19 24 1017.9 0 23.7 28.5 46.6 122.6 121.6 419.9
24 11:50 16.7 74 10.52 12 19 20 1018 0 23.5 28.3 46.3 121.7 120.5 416.1
24 11:40 17.1 77 11.21 13 19 24 1018.1 0 25.0 29.4 48.9 128.8 129.3 447.0
24 11:30 16.5 77 10.81 12.5 17 24 1018.1 0 24.2 28.9 47.6 125.3 124.8 431.1
24 11:20 16.5 75 10.53 12.1 20 22 1018.2 0 23.6 28.4 46.4 122.2 121.0 417.7
24 11:10 16.4 76 10.61 12.2 19 20 1018.3 0 23.7 28.6 46.8 123.2 122.2 422.1
24 11:00 16.2 78 10.76 12.4 17 20 1018.2 0 24.1 28.9 47.6 125.2 124.6 430.4
24 10:50 16.1 77 10.55 12.1 17 19 1018.3 0 23.6 28.6 46.8 123.0 121.9 420.8
24 10:40 16.3 77 10.68 12.3 17 19 1018.4 0 23.9 28.8 47.2 124.2 123.3 426.0
24 10:30 16.1 80 10.97 12.7 17 20 1018.3 0 24.5 29.3 48.5 127.7 127.7 441.1
24 10:20 16 79 10.76 12.4 17 20 1018.6 0 24.1 29.0 47.7 125.6 125.0 431.6
24 10:10 15.8 79 10.63 12.2 17 20 1018.7 0 23.8 28.9 47.3 124.4 123.5 426.4
24 10:00 15.8 79 10.63 12.2 17 22 1018.4 0 23.8 28.8 47.3 124.4 123.5 426.3
24 09:50 15.6 81 10.77 12.4 15 17 1018.5 0 24.1 29.1 48.0 126.3 125.7 434.3
24 09:40 15.2 80 10.38 11.8 17 19 1018.5 0 23.3 28.6 46.6 122.5 121.0 417.5
24 09:30 15.3 80 10.45 11.9 15 20 1018.4 0 23.5 28.7 46.8 123.2 121.8 420.4
24 09:20 15.1 80 10.32 11.7 13 15 1018.5 0 23.2 28.5 46.4 122.0 120.3 415.2
24 09:10 14.9 81 10.32 11.7 13 15 1018.4 0 23.2 28.6 46.5 122.3 120.6 416.2
24 09:00 15 80 10.26 11.6 13 17 1018.2 0 23.1 28.5 46.2 121.5 119.6 412.7
24 08:50 14.7 83 10.45 11.8 13 15 1018.2 0 23.5 28.9 47.2 124.1 122.7 423.5
24 08:40 14.6 82 10.26 11.6 15 15 1018.2 0 23.1 28.6 46.4 122.1 120.2 414.8
24 08:30 14.6 86 10.76 12.3 13 17 1018.2 0 24.2 29.5 48.6 127.8 127.2 439.3
24 08:20 14.4 86 10.63 12.1 11 13 1018.3 0 23.9 29.3 48.1 126.6 125.7 434.1
24 08:10 14 86 10.37 11.7 13 15 1018.3 0 23.4 29.0 47.3 124.3 122.7 423.5
24 08:00 13.8 88 10.49 11.8 11 13 1018.2 0 23.6 29.3 47.9 126.0 124.7 430.5

Last Refresh: 25-Nov-2020 00:49:35

Most of the information presented on this site is sourced from the Bureau of Meteorology.  Copyright in all material sourced from the Bureau of Meteorology resides with the Commonwealth of Australia.